< < Back
Terminal Aerodrome Forecast


Current Version              Previous Versions:   1  2  3  4  5  6  7  8  9  

Terminal Aerodrome Forecast

454
FTUS44 KBMX 280520
TAFTCL
TAF
KTCL 280520Z 2806/2906 00000KT P6SM FEW250
     FM281600 09006KT P6SM SCT050
     FM290100 06003KT P6SM SCT250=

Latest METAR

659
SAUS70 KWBC 280800 RRJ
MTRTCL
METAR KTCL 280753Z AUTO 00000KT 9SM CLR 22/22 A3002 RMK AO2 SLP164
T02220222


USA.gov is the U.S. government's official web portal to all federal, state and local government web resources and services.